createdAt,value
2022-10-20T00:02:52.677Z,24.20
2022-10-20T00:05:48.020Z,24.20
2022-10-20T00:08:43.997Z,24.30
2022-10-20T00:11:38.392Z,24.40
2022-10-20T00:14:32.861Z,24.50
2022-10-20T00:17:27.208Z,24.60
2022-10-20T00:20:21.591Z,24.70
2022-10-20T00:23:16.044Z,24.60
2022-10-20T00:26:15.377Z,24.50
2022-10-20T00:29:09.876Z,24.50
2022-10-20T00:32:04.486Z,24.50
2022-10-20T00:34:59.433Z,24.60
2022-10-20T00:37:54.106Z,24.70
2022-10-20T00:40:48.646Z,25.00
2022-10-20T00:44:00.672Z,25.00
2022-10-20T00:46:55.159Z,25.10
2022-10-20T00:49:51.640Z,25.20
2022-10-20T00:52:47.988Z,25.20
2022-10-20T00:55:45.777Z,25.10
2022-10-20T00:58:40.244Z,25.00
2022-10-20T01:01:36.448Z,24.90
2022-10-20T01:04:33.023Z,24.90
2022-10-20T01:07:27.373Z,24.90
2022-10-20T01:10:22.702Z,24.90
2022-10-20T01:13:39.748Z,25.00
2022-10-20T01:17:07.640Z,25.10
2022-10-20T01:20:22.613Z,25.30
2022-10-20T01:23:52.591Z,25.50
2022-10-20T01:27:13.037Z,25.80
2022-10-20T01:30:20.116Z,25.90
2022-10-20T01:33:51.823Z,26.10
2022-10-20T01:37:03.862Z,26.20
2022-10-20T01:40:23.710Z,26.30
2022-10-20T01:43:21.494Z,26.40
2022-10-20T01:46:19.085Z,26.70
2022-10-20T01:49:15.419Z,26.80
2022-10-20T01:52:11.763Z,27.00
2022-10-20T01:55:15.263Z,27.00
2022-10-20T01:58:15.776Z,27.00
2022-10-20T02:01:16.912Z,27.00
2022-10-20T02:04:12.586Z,27.10
2022-10-20T02:07:16.953Z,27.20
2022-10-20T02:10:48.096Z,27.30
2022-10-20T02:13:43.854Z,27.30
2022-10-20T02:17:06.909Z,27.30
2022-10-20T02:20:01.593Z,27.40
2022-10-20T02:22:57.626Z,27.40
2022-10-20T02:25:54.763Z,27.30
2022-10-20T02:28:50.808Z,27.20
2022-10-20T02:31:46.773Z,27.20
2022-10-20T02:34:42.583Z,27.20
2022-10-20T02:37:37.465Z,27.00
2022-10-20T02:40:32.235Z,26.90
2022-10-20T02:43:26.686Z,26.80
2022-10-20T02:46:21.248Z,26.90
2022-10-20T02:49:15.664Z,27.00
2022-10-20T02:52:10.258Z,27.00
2022-10-20T02:55:05.207Z,27.00
2022-10-20T02:57:59.680Z,27.00
2022-10-20T03:00:54.102Z,27.10
2022-10-20T03:03:49.664Z,27.10
2022-10-20T03:06:44.512Z,27.20
2022-10-20T03:09:39.194Z,27.30
2022-10-20T03:12:33.647Z,27.30
2022-10-20T03:15:28.332Z,27.50
2022-10-20T03:18:22.644Z,27.60
2022-10-20T03:21:17.182Z,27.80
2022-10-20T03:24:11.491Z,27.90
2022-10-20T03:27:05.985Z,28.10
2022-10-20T03:30:01.337Z,28.20
2022-10-20T03:32:55.964Z,28.20
2022-10-20T03:35:50.441Z,28.20
2022-10-20T03:38:45.302Z,28.20
2022-10-20T03:41:39.633Z,28.10
2022-10-20T03:44:34.299Z,28.00
2022-10-20T03:47:28.890Z,28.00
2022-10-20T03:50:23.304Z,28.00
2022-10-20T03:53:17.693Z,28.10
2022-10-20T03:56:16.212Z,28.10
2022-10-20T03:59:11.341Z,28.20
2022-10-20T04:02:06.350Z,28.30
2022-10-20T04:05:00.880Z,28.40
2022-10-20T04:07:55.504Z,28.30
2022-10-20T04:10:50.956Z,28.40
2022-10-20T04:13:45.796Z,28.30
2022-10-20T04:16:40.087Z,28.30
2022-10-20T04:19:34.582Z,28.40
2022-10-20T04:22:29.142Z,28.50
2022-10-20T04:25:23.463Z,28.40
2022-10-20T04:28:20.482Z,28.40
2022-10-20T04:31:14.401Z,28.40
2022-10-20T04:34:08.873Z,28.40
2022-10-20T04:37:03.348Z,28.20
2022-10-20T04:39:58.975Z,28.10
2022-10-20T04:42:53.476Z,28.10
2022-10-20T04:45:47.881Z,28.10
2022-10-20T04:48:45.561Z,28.00
2022-10-20T04:51:39.963Z,27.90
2022-10-20T04:54:34.465Z,27.80
2022-10-20T04:57:29.222Z,27.70
2022-10-20T05:00:23.703Z,27.50
2022-10-20T05:03:20.140Z,27.50
2022-10-20T05:06:20.407Z,27.50
2022-10-20T05:09:16.972Z,27.60
2022-10-20T05:12:11.505Z,27.60
2022-10-20T05:15:06.303Z,27.50
2022-10-20T05:18:00.661Z,27.50
2022-10-20T05:21:08.519Z,27.50
2022-10-20T05:24:06.336Z,27.30
2022-10-20T05:27:01.921Z,27.30
2022-10-20T05:29:56.358Z,27.20
2022-10-20T05:32:50.669Z,27.20
2022-10-20T05:35:45.323Z,27.20
2022-10-20T05:38:40.552Z,27.20
2022-10-20T05:41:38.709Z,27.20
2022-10-20T05:44:33.808Z,27.30
2022-10-20T05:47:28.276Z,27.40
2022-10-20T05:50:22.622Z,27.30
2022-10-20T05:53:17.063Z,27.30
2022-10-20T05:56:15.095Z,27.40
2022-10-20T05:59:09.585Z,27.30
2022-10-20T06:02:03.938Z,27.30
2022-10-20T06:04:58.362Z,27.30
2022-10-20T06:07:55.877Z,27.30
2022-10-20T06:10:50.408Z,27.20
2022-10-20T06:13:47.207Z,27.00
2022-10-20T06:16:45.032Z,27.00
2022-10-20T06:19:39.364Z,27.10
2022-10-20T06:22:34.004Z,27.10
2022-10-20T06:25:28.709Z,27.10
2022-10-20T06:28:23.339Z,27.20
2022-10-20T06:31:29.349Z,27.30
2022-10-20T06:34:25.990Z,27.30
2022-10-20T06:37:20.366Z,27.40
2022-10-20T06:40:14.994Z,27.50
2022-10-20T06:43:09.449Z,27.60
2022-10-20T06:46:12.496Z,27.50
2022-10-20T06:49:09.245Z,27.50
2022-10-20T06:52:03.787Z,27.50
2022-10-20T06:54:58.194Z,27.50
2022-10-20T06:57:52.731Z,27.50
2022-10-20T07:00:47.074Z,27.50
2022-10-20T07:03:42.817Z,27.50
2022-10-20T07:06:39.826Z,27.50
2022-10-20T07:09:34.160Z,27.40
2022-10-20T07:12:28.485Z,27.30
2022-10-20T07:15:22.818Z,27.20
2022-10-20T07:18:17.326Z,27.10
2022-10-20T07:21:15.905Z,27.00
2022-10-20T07:24:13.634Z,26.80
2022-10-20T07:27:08.180Z,26.90
2022-10-20T07:30:02.557Z,26.80
2022-10-20T07:32:57.333Z,26.70
2022-10-20T07:35:52.059Z,26.70
2022-10-20T07:38:47.755Z,26.70
2022-10-20T07:41:45.249Z,26.70
2022-10-20T07:44:39.690Z,26.60
2022-10-20T07:47:38.173Z,26.40
2022-10-20T07:50:33.712Z,26.40
2022-10-20T07:53:28.065Z,26.30
2022-10-20T07:56:22.792Z,26.20
2022-10-20T07:59:17.347Z,26.20
2022-10-20T08:02:14.786Z,26.00
2022-10-20T08:05:10.337Z,25.80
2022-10-20T08:08:04.855Z,25.80
2022-10-20T08:11:01.943Z,25.90
2022-10-20T08:13:56.492Z,25.80
2022-10-20T08:16:50.845Z,25.70
2022-10-20T08:19:55.410Z,25.70
2022-10-20T08:22:50.169Z,25.70
2022-10-20T08:25:44.803Z,25.80
2022-10-20T08:28:39.722Z,25.80
2022-10-20T08:31:34.177Z,25.80
2022-10-20T08:34:28.668Z,25.80
2022-10-20T08:37:23.153Z,25.80
2022-10-20T08:40:27.964Z,25.80
2022-10-20T08:43:22.768Z,25.80
2022-10-20T08:49:31.076Z,25.80
2022-10-20T08:52:26.870Z,25.70
2022-10-20T08:55:34.304Z,25.70
2022-10-20T08:58:28.723Z,25.60
2022-10-20T09:01:27.573Z,25.60
2022-10-20T09:04:39.243Z,25.50
2022-10-20T09:07:41.060Z,25.40
2022-10-20T09:10:49.185Z,25.30
2022-10-20T09:13:43.744Z,25.10
2022-10-20T09:16:55.418Z,25.00
2022-10-20T09:20:00.885Z,24.90
2022-10-20T09:22:55.433Z,24.80
2022-10-20T09:25:50.535Z,24.70
2022-10-20T09:29:08.629Z,24.60
2022-10-20T09:32:03.791Z,24.50
2022-10-20T09:35:37.479Z,24.40
2022-10-20T09:38:33.649Z,24.40
2022-10-20T09:41:32.818Z,24.40
2022-10-20T09:44:28.477Z,24.30
2022-10-20T09:47:24.712Z,24.20
2022-10-20T09:50:30.527Z,24.20
2022-10-20T09:53:41.823Z,24.30
2022-10-20T09:56:42.752Z,24.30
2022-10-20T09:59:45.471Z,24.30
2022-10-20T10:02:39.888Z,24.20
2022-10-20T10:05:35.397Z,24.20
2022-10-20T10:08:46.446Z,24.10
2022-10-20T10:11:42.392Z,24.20
2022-10-20T10:14:38.358Z,24.10
2022-10-20T10:17:37.410Z,24.10
2022-10-20T10:20:40.290Z,24.10
2022-10-20T10:23:37.782Z,24.10
2022-10-20T10:26:56.261Z,24.10
2022-10-20T10:29:50.813Z,24.10
2022-10-20T10:32:49.730Z,24.10
2022-10-20T10:35:46.359Z,24.10
2022-10-20T10:38:41.002Z,24.10
2022-10-20T10:42:02.903Z,24.20
2022-10-20T10:45:28.192Z,24.20
2022-10-20T10:48:49.484Z,24.20
2022-10-20T10:52:09.844Z,24.20
2022-10-20T10:55:54.789Z,24.30
2022-10-20T10:59:14.551Z,24.30
2022-10-20T11:02:26.554Z,24.20
2022-10-20T11:05:44.109Z,24.10
2022-10-20T11:08:59.931Z,23.90
2022-10-20T11:12:18.281Z,23.80
2022-10-20T11:15:32.171Z,23.70
2022-10-20T11:18:57.289Z,23.60
2022-10-20T11:22:07.619Z,23.70
2022-10-20T11:25:16.144Z,23.70
2022-10-20T11:28:38.252Z,23.70
2022-10-20T11:32:03.063Z,23.70
2022-10-20T11:35:37.411Z,23.80
2022-10-20T11:38:34.169Z,23.80
2022-10-20T11:41:50.956Z,23.80
2022-10-20T11:44:47.930Z,23.90
2022-10-20T11:47:44.991Z,23.90
2022-10-20T11:50:40.437Z,23.80
2022-10-20T11:53:52.508Z,23.80
2022-10-20T11:57:23.656Z,23.80
2022-10-20T12:00:43.368Z,23.70
2022-10-20T12:04:10.003Z,23.50
2022-10-20T12:07:39.322Z,23.50
2022-10-20T12:10:38.547Z,23.50
2022-10-20T12:14:05.127Z,23.60
2022-10-20T12:17:05.518Z,23.50
2022-10-20T12:20:38.203Z,23.50
2022-10-20T12:23:48.238Z,23.60
2022-10-20T12:27:12.116Z,23.70
2022-10-20T12:30:40.440Z,23.70
2022-10-20T12:33:40.796Z,23.60
2022-10-20T12:36:41.130Z,23.70
2022-10-20T12:39:35.678Z,23.70
2022-10-20T12:42:35.852Z,23.70
2022-10-20T12:45:43.882Z,23.70
2022-10-20T12:48:45.963Z,23.60
2022-10-20T12:51:42.399Z,23.50
2022-10-20T12:54:43.823Z,23.40
2022-10-20T12:57:43.798Z,23.30
2022-10-20T13:00:39.119Z,23.30
2022-10-20T13:03:47.937Z,23.30
2022-10-20T13:06:43.196Z,23.40
2022-10-20T13:10:00.292Z,23.50
2022-10-20T13:13:03.907Z,23.50
2022-10-20T13:15:58.512Z,23.50
2022-10-20T13:18:55.219Z,23.50
2022-10-20T13:21:50.843Z,23.50
2022-10-20T13:24:45.544Z,23.50
2022-10-20T13:27:39.941Z,23.50
2022-10-20T13:30:36.836Z,23.50
2022-10-20T13:34:02.488Z,23.50
2022-10-20T13:37:34.064Z,23.50
2022-10-20T13:40:49.401Z,23.50
2022-10-20T13:43:57.468Z,23.50
2022-10-20T13:46:58.650Z,23.40
2022-10-20T13:50:07.250Z,23.30
2022-10-20T13:53:14.885Z,23.30
2022-10-20T13:56:18.341Z,23.20
2022-10-20T13:59:32.055Z,23.20
2022-10-20T14:02:33.366Z,23.10
2022-10-20T14:05:29.680Z,23.10
2022-10-20T14:08:24.145Z,23.10
2022-10-20T14:11:18.458Z,23.00
2022-10-20T14:14:21.714Z,23.00
2022-10-20T14:17:25.127Z,22.90
2022-10-20T14:20:24.299Z,22.90
2022-10-20T14:23:18.672Z,22.90
2022-10-20T14:26:21.968Z,22.90
2022-10-20T14:29:19.017Z,22.80
2022-10-20T14:32:23.319Z,22.80
2022-10-20T14:36:03.914Z,22.80
2022-10-20T14:39:02.021Z,22.70
2022-10-20T14:41:59.073Z,22.70
2022-10-20T14:44:58.624Z,22.70
2022-10-20T14:47:55.424Z,22.70
2022-10-20T14:50:49.889Z,22.70
2022-10-20T14:53:48.315Z,22.60
2022-10-20T14:57:09.638Z,22.60
2022-10-20T15:00:26.125Z,22.50
2022-10-20T15:03:20.795Z,22.40
2022-10-20T15:06:19.160Z,22.50
2022-10-20T15:09:44.250Z,22.50
2022-10-20T15:12:38.901Z,22.50
2022-10-20T15:15:40.669Z,22.50
2022-10-20T15:18:39.269Z,22.60
2022-10-20T15:21:34.427Z,22.60
2022-10-20T15:24:29.704Z,22.60
2022-10-20T15:27:24.241Z,22.60
2022-10-20T15:30:26.610Z,22.60
2022-10-20T15:33:21.145Z,22.60
2022-10-20T15:36:17.543Z,22.60
2022-10-20T15:39:13.276Z,22.50
2022-10-20T15:42:12.338Z,22.50
2022-10-20T15:45:26.836Z,22.50
2022-10-20T15:48:21.272Z,22.50
2022-10-20T15:51:26.696Z,22.50
2022-10-20T15:54:24.070Z,22.50
2022-10-20T15:57:19.373Z,22.50
2022-10-20T16:00:14.321Z,22.50
2022-10-20T16:03:08.992Z,22.50
2022-10-20T16:06:03.322Z,22.50
2022-10-20T16:08:57.756Z,22.40
2022-10-20T16:11:52.370Z,22.40
2022-10-20T16:14:46.683Z,22.30
2022-10-20T16:17:41.082Z,22.20
2022-10-20T16:20:35.439Z,22.20
2022-10-20T16:23:30.419Z,22.20
2022-10-20T16:26:24.838Z,22.10
2022-10-20T16:29:19.173Z,22.10
2022-10-20T16:32:13.616Z,22.10
2022-10-20T16:35:08.296Z,22.10
2022-10-20T16:38:02.905Z,22.10
2022-10-20T16:41:08.727Z,22.00
2022-10-20T16:44:03.222Z,22.00
2022-10-20T16:46:57.595Z,22.00
2022-10-20T16:49:51.983Z,22.00
2022-10-20T16:52:49.236Z,21.90
2022-10-20T16:55:51.883Z,21.90
2022-10-20T16:58:46.170Z,21.90
2022-10-20T17:01:40.623Z,21.80
2022-10-20T17:04:35.047Z,21.80
2022-10-20T17:07:29.437Z,21.80
2022-10-20T17:10:23.709Z,21.80
2022-10-20T17:13:18.280Z,21.70
2022-10-20T17:16:22.405Z,21.70
2022-10-20T17:19:19.215Z,21.70
2022-10-20T17:22:13.580Z,21.70
2022-10-20T17:25:08.607Z,21.70
2022-10-20T17:28:02.948Z,21.70
2022-10-20T17:31:00.263Z,21.70
2022-10-20T17:33:54.173Z,21.70
2022-10-20T17:36:48.752Z,21.60
2022-10-20T17:39:43.026Z,21.60
2022-10-20T17:42:37.555Z,21.60
2022-10-20T17:45:34.993Z,21.60
2022-10-20T17:48:32.056Z,21.60
2022-10-20T17:51:31.882Z,21.60
2022-10-20T17:54:28.944Z,21.60
2022-10-20T17:57:23.275Z,21.60
2022-10-20T18:00:26.890Z,21.50
2022-10-20T18:03:32.613Z,21.50
2022-10-20T18:06:33.520Z,21.50
2022-10-20T18:09:28.604Z,21.50
2022-10-20T18:12:22.914Z,21.40
2022-10-20T18:15:17.260Z,21.50
2022-10-20T18:18:11.647Z,21.40
2022-10-20T18:21:06.647Z,21.40
2022-10-20T18:24:04.322Z,21.40
2022-10-20T18:26:58.685Z,21.30
2022-10-20T18:29:53.076Z,21.30
2022-10-20T18:32:47.377Z,21.30
2022-10-20T18:35:42.064Z,21.30
2022-10-20T18:38:41.525Z,21.30
2022-10-20T18:41:39.581Z,21.40
2022-10-20T18:44:34.993Z,21.30
2022-10-20T18:47:29.599Z,21.30
2022-10-20T18:50:24.325Z,21.30
2022-10-20T18:53:18.784Z,21.30
2022-10-20T18:56:19.376Z,21.30
2022-10-20T18:59:17.544Z,21.20
2022-10-20T19:02:12.623Z,21.20
2022-10-20T19:05:07.780Z,21.20
2022-10-20T19:08:02.207Z,21.10
2022-10-20T19:10:58.136Z,21.10
2022-10-20T19:13:53.058Z,21.00
2022-10-20T19:16:49.101Z,21.00
2022-10-20T19:19:45.347Z,21.10
2022-10-20T19:22:40.730Z,21.10
2022-10-20T19:25:35.461Z,21.00
2022-10-20T19:28:30.140Z,21.10
2022-10-20T19:31:39.058Z,21.00
2022-10-20T19:34:37.076Z,21.00
2022-10-20T19:37:31.531Z,21.10
2022-10-20T19:40:27.719Z,21.10
2022-10-20T19:43:22.970Z,21.10
2022-10-20T19:46:19.633Z,21.10
2022-10-20T19:49:14.306Z,21.10
2022-10-20T19:52:09.603Z,21.10
2022-10-20T19:55:04.107Z,21.00
2022-10-20T19:57:58.690Z,21.00
2022-10-20T20:00:57.713Z,21.00
2022-10-20T20:03:52.105Z,21.10
2022-10-20T20:06:46.543Z,21.10
2022-10-20T20:09:40.940Z,21.00
2022-10-20T20:12:35.334Z,21.10
2022-10-20T20:15:29.917Z,21.10
2022-10-20T20:18:24.361Z,21.00
2022-10-20T20:21:19.807Z,21.00
2022-10-20T20:24:15.376Z,21.00
2022-10-20T20:27:10.470Z,21.00
2022-10-20T20:30:06.378Z,21.00
2022-10-20T20:33:03.023Z,21.00
2022-10-20T20:36:01.267Z,21.00
2022-10-20T20:38:58.389Z,21.00
2022-10-20T20:41:52.362Z,21.00
2022-10-20T20:44:46.869Z,21.00
2022-10-20T20:47:41.691Z,21.00
2022-10-20T20:50:36.474Z,21.00
2022-10-20T20:53:30.936Z,21.00
2022-10-20T20:56:27.036Z,21.00
2022-10-20T20:59:21.484Z,21.00
2022-10-20T21:02:15.975Z,21.00
2022-10-20T21:05:10.329Z,21.10
2022-10-20T21:08:04.741Z,21.00
2022-10-20T21:10:59.051Z,21.10
2022-10-20T21:13:56.410Z,21.10
2022-10-20T21:16:50.723Z,21.20
2022-10-20T21:19:45.080Z,21.30
2022-10-20T21:22:40.291Z,21.30
2022-10-20T21:25:34.707Z,21.40
2022-10-20T21:28:29.193Z,21.50
2022-10-20T21:31:26.362Z,21.50
2022-10-20T21:34:20.684Z,21.60
2022-10-20T21:37:15.102Z,21.70
2022-10-20T21:40:09.908Z,21.70
2022-10-20T21:43:05.090Z,21.90
2022-10-20T21:46:11.521Z,21.90
2022-10-20T21:49:09.309Z,22.00
2022-10-20T21:52:03.647Z,22.10
2022-10-20T21:54:58.051Z,22.10
2022-10-20T21:57:53.001Z,22.30
2022-10-20T22:00:47.558Z,22.30
2022-10-20T22:03:42.851Z,22.50
2022-10-20T22:06:39.799Z,22.70
2022-10-20T22:09:34.297Z,22.90
2022-10-20T22:12:28.899Z,23.10
2022-10-20T22:15:23.244Z,23.30
2022-10-20T22:18:17.632Z,23.50
2022-10-20T22:21:15.301Z,23.70
2022-10-20T22:24:10.129Z,23.80
2022-10-20T22:27:15.376Z,24.10
2022-10-20T22:30:20.897Z,24.40
2022-10-20T22:33:15.312Z,24.90
2022-10-20T22:36:09.917Z,25.20
2022-10-20T22:39:05.164Z,25.20
2022-10-20T22:41:59.590Z,25.30
2022-10-20T22:44:54.016Z,25.40
2022-10-20T22:47:48.434Z,25.40
2022-10-20T22:50:43.243Z,25.40
2022-10-20T22:53:38.845Z,25.40
2022-10-20T22:56:33.256Z,25.40
2022-10-20T22:59:27.591Z,25.50
2022-10-20T23:02:22.013Z,25.50
2022-10-20T23:05:16.470Z,25.60
2022-10-20T23:08:10.840Z,25.70
2022-10-20T23:11:05.261Z,25.80
2022-10-20T23:13:59.698Z,25.90
2022-10-20T23:16:54.156Z,26.00
2022-10-20T23:19:48.628Z,26.10
2022-10-20T23:22:43.194Z,26.20
2022-10-20T23:25:41.096Z,26.40
2022-10-20T23:28:37.081Z,26.50
2022-10-20T23:31:31.633Z,26.70
2022-10-20T23:34:26.979Z,26.80
2022-10-20T23:37:23.023Z,26.90
2022-10-20T23:40:17.593Z,27.00
2022-10-20T23:43:11.996Z,27.00
2022-10-20T23:46:06.648Z,27.00
2022-10-20T23:49:01.526Z,27.10
2022-10-20T23:51:56.058Z,27.10
2022-10-20T23:54:50.422Z,27.10
2022-10-20T23:57:44.910Z,27.00
